Skidmore, Kansas
Current Conditions -  °F | °C
As of 6:35 AM on Sunday 21 Dec 2014 (Local Time) from KPTS Reporting Station
Haze Haze  
Wind Chill: 39°   Ceiling: 400
Heat Index: 42°   Visibility: 4mi
Dew Point: 42°   Wind: 5mph
Humidity: 100%   Direction: 240°WSW
Pressure: 30.07"   Gusts: NA
Location:  37.2661°N, 94.8513°W
Report Text: KPTS 211235Z AUTO 24004KT 4SM BR OVC004 06/06 A3007 RMK AO2 T00570058
Loading
Personal Weather Stations






























Interactive Weather Map New forecast layout! Learn more

10-Day Weather Forecast

Advertisements
Track Severe Weather on mobile